createdAt,value
2022-08-25T00:00:23.654Z,30.42
2022-08-25T00:00:53.732Z,30.46
2022-08-25T00:01:23.776Z,30.40
2022-08-25T00:01:53.886Z,30.37
2022-08-25T00:02:23.905Z,30.37
2022-08-25T00:02:55.144Z,30.48
2022-08-25T00:03:24.009Z,30.53
2022-08-25T00:03:54.043Z,30.42
2022-08-25T00:04:24.128Z,30.43
2022-08-25T00:04:54.189Z,30.42
2022-08-25T00:05:24.300Z,30.47
2022-08-25T00:05:54.425Z,30.42
2022-08-25T00:06:24.377Z,30.37
2022-08-25T00:06:54.412Z,30.46
2022-08-25T00:07:24.451Z,30.49
2022-08-25T00:07:54.475Z,30.37
2022-08-25T00:08:24.517Z,30.45
2022-08-25T00:08:54.550Z,30.48
2022-08-25T00:09:24.578Z,30.46
2022-08-25T00:09:54.613Z,30.46
2022-08-25T00:10:24.641Z,30.46
2022-08-25T00:11:03.519Z,30.43
2022-08-25T00:11:24.731Z,30.48
2022-08-25T00:11:54.766Z,30.42
2022-08-25T00:12:24.808Z,30.42
2022-08-25T00:12:54.846Z,30.46
2022-08-25T00:13:24.877Z,30.42
2022-08-25T00:13:54.954Z,30.45
2022-08-25T00:14:24.992Z,30.45
2022-08-25T00:14:55.019Z,30.50
2022-08-25T00:15:25.139Z,30.46
2022-08-25T00:15:55.273Z,30.43
2022-08-25T00:16:25.281Z,30.45
2022-08-25T00:16:56.148Z,30.42
2022-08-25T00:17:25.533Z,30.37
2022-08-25T00:17:55.527Z,30.46
2022-08-25T00:18:25.646Z,30.45
2022-08-25T00:18:55.765Z,30.51
2022-08-25T00:19:25.760Z,30.42
2022-08-25T00:19:55.761Z,30.42
2022-08-25T00:20:25.877Z,30.40
2022-08-25T00:20:55.873Z,30.45
2022-08-25T00:21:25.865Z,30.40
2022-08-25T00:21:55.987Z,30.43
2022-08-25T00:22:26.031Z,30.47
2022-08-25T00:22:56.030Z,30.42
2022-08-25T00:23:26.019Z,30.46
2022-08-25T00:23:56.145Z,30.38
2022-08-25T00:24:26.144Z,30.40
2022-08-25T00:24:56.138Z,30.43
2022-08-25T00:25:26.173Z,30.46
2022-08-25T00:25:56.206Z,30.43
2022-08-25T00:26:26.241Z,30.43
2022-08-25T00:26:56.274Z,30.46
2022-08-25T00:27:26.325Z,30.45
2022-08-25T00:27:56.360Z,30.48
2022-08-25T00:28:26.395Z,30.39
2022-08-25T00:28:56.431Z,30.35
2022-08-25T00:29:26.490Z,30.45
2022-08-25T00:29:56.514Z,30.43
2022-08-25T00:30:26.577Z,30.47
2022-08-25T00:30:56.616Z,30.37
2022-08-25T00:31:26.638Z,30.41
2022-08-25T00:31:56.685Z,30.35
2022-08-25T00:32:26.750Z,30.37
2022-08-25T00:32:57.577Z,30.49
2022-08-25T00:33:26.775Z,30.38
2022-08-25T00:33:56.811Z,30.38
2022-08-25T00:34:26.837Z,30.45
2022-08-25T00:34:56.871Z,30.46
2022-08-25T00:35:26.908Z,30.41
2022-08-25T00:35:56.931Z,30.45
2022-08-25T00:36:26.962Z,30.42
2022-08-25T00:36:57.002Z,30.41
2022-08-25T00:37:27.046Z,30.40
2022-08-25T00:37:57.078Z,30.45
2022-08-25T00:38:27.117Z,30.40
2022-08-25T00:38:57.145Z,30.40
2022-08-25T00:39:27.171Z,30.41
2022-08-25T00:39:57.307Z,30.38
2022-08-25T00:40:27.327Z,30.41
2022-08-25T00:40:57.275Z,30.41
2022-08-25T00:41:27.306Z,30.43
2022-08-25T00:41:57.346Z,30.40
2022-08-25T00:42:27.369Z,30.40
2022-08-25T00:42:57.406Z,30.43
2022-08-25T00:43:27.435Z,30.37
2022-08-25T00:43:57.466Z,30.43
2022-08-25T00:44:27.492Z,30.38
2022-08-25T00:44:57.779Z,30.40
2022-08-25T00:45:27.523Z,30.47
2022-08-25T00:45:57.607Z,30.40
2022-08-25T00:46:27.691Z,30.41
2022-08-25T00:46:57.645Z,30.41
2022-08-25T00:47:27.673Z,30.45
2022-08-25T00:47:59.962Z,30.40
2022-08-25T00:48:27.772Z,30.45
2022-08-25T00:48:57.804Z,30.41
2022-08-25T00:49:27.831Z,30.41
2022-08-25T00:49:57.860Z,30.40
2022-08-25T00:50:27.893Z,30.43
2022-08-25T00:50:57.924Z,30.43
2022-08-25T00:51:27.952Z,30.36
2022-08-25T00:51:57.989Z,30.35
2022-08-25T00:52:28.041Z,30.41
2022-08-25T00:52:58.076Z,30.43
2022-08-25T00:53:28.106Z,30.38
2022-08-25T00:53:58.135Z,30.38
2022-08-25T00:54:28.158Z,30.38
2022-08-25T00:54:59.428Z,30.32
2022-08-25T00:55:28.309Z,30.41
2022-08-25T00:55:58.335Z,30.43
2022-08-25T00:56:28.371Z,30.41
2022-08-25T00:56:58.404Z,30.38
2022-08-25T00:57:34.574Z,30.40
2022-08-25T00:57:58.524Z,30.38
2022-08-25T00:58:28.615Z,30.38
2022-08-25T00:58:58.640Z,30.43
2022-08-25T00:59:28.681Z,30.41
2022-08-25T00:59:58.705Z,30.49
2022-08-25T01:00:28.735Z,30.44
2022-08-25T01:00:58.764Z,30.35
2022-08-25T01:01:28.858Z,30.40
2022-08-25T01:01:59.132Z,30.38
2022-08-25T01:02:29.073Z,30.38
2022-08-25T01:02:59.039Z,30.35
2022-08-25T01:03:33.129Z,30.40
2022-08-25T01:03:59.124Z,30.38
2022-08-25T01:04:29.157Z,30.41
2022-08-25T01:04:59.188Z,30.38
2022-08-25T01:05:29.212Z,30.43
2022-08-25T01:05:59.244Z,30.42
2022-08-25T01:06:29.270Z,30.46
2022-08-25T01:06:59.348Z,30.39
2022-08-25T01:07:29.382Z,30.41
2022-08-25T01:07:59.535Z,30.36
2022-08-25T01:08:29.444Z,30.41
2022-08-25T01:08:59.539Z,30.44
2022-08-25T01:09:29.568Z,30.36
2022-08-25T01:09:59.598Z,30.36
2022-08-25T01:10:29.634Z,30.36
2022-08-25T01:10:59.667Z,30.39
2022-08-25T01:11:29.709Z,30.39
2022-08-25T01:11:59.737Z,30.41
2022-08-25T01:12:29.764Z,30.42
2022-08-25T01:12:59.801Z,30.41
2022-08-25T01:13:29.826Z,30.38
2022-08-25T01:13:59.854Z,30.35
2022-08-25T01:14:29.883Z,30.39
2022-08-25T01:14:59.910Z,30.35
2022-08-25T01:15:30.072Z,30.41
2022-08-25T01:16:00.232Z,30.36
2022-08-25T01:16:30.135Z,30.33
2022-08-25T01:17:00.129Z,30.44
2022-08-25T01:17:30.252Z,30.38
2022-08-25T01:18:00.397Z,30.36
2022-08-25T01:18:30.256Z,30.38
2022-08-25T01:19:00.371Z,30.38
2022-08-25T01:19:30.492Z,30.33
2022-08-25T01:20:00.611Z,30.36
2022-08-25T01:20:30.600Z,30.39
2022-08-25T01:21:00.717Z,30.33
2022-08-25T01:21:30.712Z,30.38
2022-08-25T01:22:00.832Z,30.43
2022-08-25T01:22:30.950Z,30.33
2022-08-25T01:23:00.942Z,30.39
2022-08-25T01:23:31.059Z,30.39
2022-08-25T01:24:01.179Z,30.39
2022-08-25T01:24:31.174Z,30.39
2022-08-25T01:25:01.182Z,30.36
2022-08-25T01:25:31.204Z,30.41
2022-08-25T01:26:01.242Z,30.36
2022-08-25T01:26:31.270Z,30.38
2022-08-25T01:27:01.299Z,30.36
2022-08-25T01:27:31.334Z,30.37
2022-08-25T01:28:01.428Z,30.35
2022-08-25T01:28:31.441Z,30.41
2022-08-25T01:29:01.473Z,30.41
2022-08-25T01:29:31.506Z,30.38
2022-08-25T01:30:01.538Z,30.41
2022-08-25T01:30:31.673Z,30.36
2022-08-25T01:31:01.708Z,30.35
2022-08-25T01:31:31.783Z,30.36
2022-08-25T01:32:01.674Z,30.41
2022-08-25T01:32:31.807Z,30.36
2022-08-25T01:33:01.773Z,30.41
2022-08-25T01:33:31.804Z,30.35
2022-08-25T01:34:01.829Z,30.37
2022-08-25T01:34:31.863Z,30.39
2022-08-25T01:35:01.898Z,30.35
2022-08-25T01:35:31.925Z,30.37
2022-08-25T01:36:01.957Z,30.36
2022-08-25T01:36:31.981Z,30.39
2022-08-25T01:37:02.024Z,30.42
2022-08-25T01:37:32.051Z,30.33
2022-08-25T01:38:02.079Z,30.39
2022-08-25T01:38:32.107Z,30.41
2022-08-25T01:39:02.136Z,30.35
2022-08-25T01:39:32.158Z,30.37
2022-08-25T01:40:02.282Z,30.39
2022-08-25T01:40:32.255Z,30.36
2022-08-25T01:41:02.273Z,30.33
2022-08-25T01:41:32.303Z,30.41
2022-08-25T01:42:02.335Z,30.36
2022-08-25T01:42:32.364Z,30.36
2022-08-25T01:43:02.404Z,30.36
2022-08-25T01:43:32.444Z,30.39
2022-08-25T01:44:02.457Z,30.36
2022-08-25T01:44:32.482Z,30.36
2022-08-25T01:45:02.515Z,30.31
2022-08-25T01:45:32.545Z,30.36
2022-08-25T01:46:02.636Z,30.37
2022-08-25T01:46:32.639Z,30.36
2022-08-25T01:47:02.641Z,30.41
2022-08-25T01:47:32.677Z,30.36
2022-08-25T01:48:02.761Z,30.37
2022-08-25T01:48:32.783Z,30.35
2022-08-25T01:49:06.682Z,30.33
2022-08-25T01:49:32.867Z,30.36
2022-08-25T01:50:02.900Z,30.37
2022-08-25T01:50:32.926Z,30.34
2022-08-25T01:51:02.960Z,30.36
2022-08-25T01:51:32.989Z,30.34
2022-08-25T01:52:03.025Z,30.39
2022-08-25T01:52:33.052Z,30.41
2022-08-25T01:53:03.099Z,30.35
2022-08-25T01:53:33.602Z,30.37
2022-08-25T01:54:03.192Z,30.34
2022-08-25T01:54:33.219Z,30.39
2022-08-25T01:55:03.256Z,30.37
2022-08-25T01:55:33.280Z,30.37
2022-08-25T01:56:03.817Z,30.37
2022-08-25T01:56:33.313Z,30.31
2022-08-25T01:57:03.358Z,30.31
2022-08-25T01:57:33.380Z,30.34
2022-08-25T01:58:03.697Z,30.34
2022-08-25T01:58:33.451Z,30.36
2022-08-25T01:59:03.479Z,30.31
2022-08-25T01:59:33.511Z,30.37
2022-08-25T02:00:03.539Z,30.37
2022-08-25T02:00:33.571Z,30.36
2022-08-25T02:01:03.680Z,30.37
2022-08-25T02:01:33.761Z,30.40
2022-08-25T02:02:04.870Z,30.37
2022-08-25T02:02:33.924Z,30.34
2022-08-25T02:03:04.008Z,30.32
2022-08-25T02:03:34.043Z,30.37
2022-08-25T02:04:04.093Z,30.36
2022-08-25T02:04:34.262Z,30.42
2022-08-25T02:05:04.177Z,30.37
2022-08-25T02:05:34.274Z,30.34
2022-08-25T02:06:04.357Z,30.32
2022-08-25T02:06:34.330Z,30.36
2022-08-25T02:07:04.366Z,30.34
2022-08-25T02:07:34.395Z,30.35
2022-08-25T02:08:04.598Z,30.29
2022-08-25T02:08:34.472Z,30.40
2022-08-25T02:09:04.504Z,30.34
2022-08-25T02:09:34.532Z,30.37
2022-08-25T02:10:04.560Z,30.36
2022-08-25T02:10:34.593Z,30.39
2022-08-25T02:11:04.616Z,30.32
2022-08-25T02:11:34.649Z,30.29
2022-08-25T02:12:04.686Z,30.34
2022-08-25T02:12:34.709Z,30.34
2022-08-25T02:13:04.739Z,30.34
2022-08-25T02:13:34.769Z,30.36
2022-08-25T02:14:04.793Z,30.32
2022-08-25T02:14:34.823Z,30.35
2022-08-25T02:15:04.840Z,30.31
2022-08-25T02:15:34.950Z,30.32
2022-08-25T02:16:04.945Z,30.34
2022-08-25T02:16:35.102Z,30.35
2022-08-25T02:17:05.170Z,30.34
2022-08-25T02:17:35.150Z,30.31
2022-08-25T02:18:05.367Z,30.34
2022-08-25T02:18:35.208Z,30.37
2022-08-25T02:19:05.199Z,30.37
2022-08-25T02:19:35.319Z,30.35
2022-08-25T02:20:05.427Z,30.34
2022-08-25T02:20:35.543Z,30.40
2022-08-25T02:21:05.657Z,30.34
2022-08-25T02:21:35.771Z,30.35
2022-08-25T02:22:05.888Z,30.37
2022-08-25T02:22:36.006Z,30.35
2022-08-25T02:23:06.124Z,30.34
2022-08-25T02:23:36.246Z,30.35
2022-08-25T02:24:06.360Z,30.35
2022-08-25T02:24:36.358Z,30.37
2022-08-25T02:25:06.390Z,30.34
2022-08-25T02:25:36.402Z,30.29
2022-08-25T02:26:06.444Z,30.35
2022-08-25T02:26:36.451Z,30.38
2022-08-25T02:27:06.486Z,30.37
2022-08-25T02:27:36.517Z,30.35
2022-08-25T02:28:06.816Z,30.38
2022-08-25T02:28:36.624Z,30.35
2022-08-25T02:29:06.654Z,30.39
2022-08-25T02:29:36.686Z,30.32
2022-08-25T02:30:06.723Z,30.32
2022-08-25T02:30:36.834Z,30.37
2022-08-25T02:31:06.879Z,30.32
2022-08-25T02:31:36.884Z,30.32
2022-08-25T02:32:06.912Z,30.32
2022-08-25T02:32:36.958Z,30.40
2022-08-25T02:33:06.995Z,30.35
2022-08-25T02:33:37.038Z,30.34
2022-08-25T02:34:07.056Z,30.34
2022-08-25T02:34:37.089Z,30.34
2022-08-25T02:35:07.123Z,30.34
2022-08-25T02:35:37.140Z,30.37
2022-08-25T02:36:07.171Z,30.33
2022-08-25T02:36:37.202Z,30.35
2022-08-25T02:37:07.235Z,30.29
2022-08-25T02:37:37.274Z,30.40
2022-08-25T02:38:07.300Z,30.34
2022-08-25T02:38:37.337Z,30.38
2022-08-25T02:39:07.362Z,30.34
2022-08-25T02:39:37.395Z,30.30
2022-08-25T02:40:07.481Z,30.36
2022-08-25T02:40:37.485Z,30.38
2022-08-25T02:41:07.522Z,30.38
2022-08-25T02:41:37.562Z,30.40
2022-08-25T02:42:07.598Z,30.41
2022-08-25T02:42:37.627Z,30.32
2022-08-25T02:43:07.650Z,30.35
2022-08-25T02:43:37.681Z,30.35
2022-08-25T02:44:07.708Z,30.38
2022-08-25T02:44:37.754Z,30.35
2022-08-25T02:45:07.761Z,30.38
2022-08-25T02:45:37.840Z,30.38
2022-08-25T02:46:07.893Z,30.41
2022-08-25T02:46:37.973Z,30.40
2022-08-25T02:47:08.010Z,30.36
2022-08-25T02:47:38.042Z,30.36
2022-08-25T02:48:08.061Z,30.36
2022-08-25T02:48:38.092Z,30.36
2022-08-25T02:49:08.120Z,30.40
2022-08-25T02:49:38.155Z,30.38
2022-08-25T02:50:08.188Z,30.40
2022-08-25T02:50:38.223Z,30.33
2022-08-25T02:51:08.251Z,30.32
2022-08-25T02:51:38.295Z,30.35
2022-08-25T02:52:08.319Z,30.36
2022-08-25T02:52:38.349Z,30.38
2022-08-25T02:53:08.385Z,30.38
2022-08-25T02:53:38.423Z,30.40
2022-08-25T02:54:08.448Z,30.38
2022-08-25T02:54:38.477Z,30.36
2022-08-25T02:55:08.508Z,30.35
2022-08-25T02:55:38.533Z,30.35
2022-08-25T02:56:08.566Z,30.33
2022-08-25T02:56:38.603Z,30.36
2022-08-25T02:57:08.631Z,30.35
2022-08-25T02:57:38.665Z,30.38
2022-08-25T02:58:08.689Z,30.32
2022-08-25T02:58:38.716Z,30.35
2022-08-25T02:59:08.744Z,30.40
2022-08-25T02:59:38.778Z,30.38
2022-08-25T03:00:08.807Z,30.29
2022-08-25T03:00:38.870Z,30.33
2022-08-25T03:01:08.947Z,30.31
2022-08-25T03:01:39.032Z,30.35
2022-08-25T03:02:09.056Z,30.40
2022-08-25T03:02:39.093Z,30.38
2022-08-25T03:03:09.128Z,30.36
2022-08-25T03:03:39.576Z,30.38
2022-08-25T03:04:09.206Z,30.33
2022-08-25T03:04:39.329Z,30.36
2022-08-25T03:05:09.472Z,30.36
2022-08-25T03:05:39.394Z,30.36
2022-08-25T03:06:09.426Z,30.33
2022-08-25T03:06:39.466Z,30.35
2022-08-25T03:07:09.497Z,30.38
2022-08-25T03:07:39.883Z,30.38
2022-08-25T03:08:09.675Z,30.38
2022-08-25T03:08:39.709Z,30.38
2022-08-25T03:09:09.735Z,30.36
2022-08-25T03:09:39.779Z,30.35
2022-08-25T03:10:09.795Z,30.33
2022-08-25T03:10:39.831Z,30.36
2022-08-25T03:11:09.863Z,30.35
2022-08-25T03:11:39.892Z,30.38
2022-08-25T03:12:09.926Z,30.33
2022-08-25T03:12:39.957Z,30.35
2022-08-25T03:13:09.988Z,30.35
2022-08-25T03:13:40.036Z,30.36
2022-08-25T03:14:10.052Z,30.35
2022-08-25T03:14:40.082Z,30.38
2022-08-25T03:15:12.798Z,30.39
2022-08-25T03:15:40.172Z,30.38
2022-08-25T03:16:11.152Z,30.39
2022-08-25T03:16:40.379Z,30.37
2022-08-25T03:17:10.343Z,30.36
2022-08-25T03:17:40.297Z,30.38
2022-08-25T03:18:10.304Z,30.37
2022-08-25T03:18:40.429Z,30.34
2022-08-25T03:19:10.545Z,30.36
2022-08-25T03:19:40.536Z,30.35
2022-08-25T03:20:10.529Z,30.39
2022-08-25T03:20:40.643Z,30.33
2022-08-25T03:21:10.807Z,30.28
2022-08-25T03:21:40.797Z,30.38
2022-08-25T03:22:11.239Z,30.35
2022-08-25T03:22:40.977Z,30.35
2022-08-25T03:23:10.975Z,30.29
2022-08-25T03:23:41.096Z,30.36
2022-08-25T03:24:11.207Z,30.34
2022-08-25T03:24:41.205Z,30.36
2022-08-25T03:25:11.226Z,30.37
2022-08-25T03:25:41.253Z,30.31
2022-08-25T03:26:11.288Z,30.38
2022-08-25T03:26:41.325Z,30.38
2022-08-25T03:27:11.351Z,30.36
2022-08-25T03:27:41.457Z,30.35
2022-08-25T03:28:11.494Z,30.36
2022-08-25T03:28:41.515Z,30.36
2022-08-25T03:29:11.541Z,30.35
2022-08-25T03:29:41.578Z,30.36
2022-08-25T03:30:11.612Z,30.38
2022-08-25T03:30:41.643Z,30.33
2022-08-25T03:31:11.751Z,30.27
2022-08-25T03:31:41.848Z,30.33
2022-08-25T03:32:11.974Z,30.31
2022-08-25T03:32:41.999Z,30.26
2022-08-25T03:33:12.030Z,30.25
2022-08-25T03:33:42.099Z,30.26
2022-08-25T03:34:12.129Z,30.28
2022-08-25T03:34:42.159Z,30.26
2022-08-25T03:35:12.192Z,30.34
2022-08-25T03:35:42.215Z,30.37
2022-08-25T03:36:12.253Z,30.36
2022-08-25T03:36:42.284Z,30.40
2022-08-25T03:37:12.309Z,30.35
2022-08-25T03:37:42.346Z,30.43
2022-08-25T03:38:12.378Z,30.36
2022-08-25T03:38:42.401Z,30.41
2022-08-25T03:39:12.435Z,30.40
2022-08-25T03:39:42.473Z,30.40
2022-08-25T03:40:15.280Z,30.37
2022-08-25T03:40:42.527Z,30.39
2022-08-25T03:41:12.575Z,30.34
2022-08-25T03:41:42.608Z,30.34
2022-08-25T03:42:12.637Z,30.32
2022-08-25T03:42:45.024Z,30.39
2022-08-25T03:43:12.725Z,30.32
2022-08-25T03:43:42.764Z,30.00
2022-08-25T03:44:12.787Z,29.67
2022-08-25T03:44:42.815Z,29.45
2022-08-25T03:45:12.843Z,29.36
2022-08-25T03:45:42.934Z,29.30
2022-08-25T03:46:13.018Z,29.15
2022-08-25T03:46:43.029Z,29.01
2022-08-25T03:47:13.061Z,29.08
2022-08-25T03:47:43.110Z,29.05
2022-08-25T03:48:13.140Z,29.12
2022-08-25T03:48:43.178Z,29.02
2022-08-25T03:49:13.208Z,29.11
2022-08-25T03:49:43.237Z,29.06
2022-08-25T03:50:13.282Z,29.12
2022-08-25T03:50:43.337Z,29.10
2022-08-25T03:51:13.390Z,28.99
2022-08-25T03:51:43.432Z,28.97
2022-08-25T03:52:13.452Z,29.06
2022-08-25T03:52:43.489Z,29.17
2022-08-25T03:53:13.521Z,29.23
2022-08-25T03:53:43.613Z,29.19
2022-08-25T03:54:13.655Z,29.32
2022-08-25T03:54:43.689Z,29.29
2022-08-25T03:55:13.735Z,29.50
2022-08-25T03:55:43.750Z,29.55
2022-08-25T03:56:13.774Z,29.77
2022-08-25T03:56:43.814Z,29.64
2022-08-25T03:57:13.844Z,29.51
2022-08-25T03:57:43.876Z,29.89
2022-08-25T03:58:13.908Z,29.80
2022-08-25T03:58:43.944Z,29.85
2022-08-25T03:59:13.975Z,29.71
2022-08-25T03:59:44.016Z,29.61
2022-08-25T04:00:14.052Z,29.62
2022-08-25T04:00:44.168Z,29.64
2022-08-25T04:01:14.224Z,29.73
2022-08-25T04:01:44.298Z,29.77
2022-08-25T04:02:14.404Z,29.79
2022-08-25T04:02:44.496Z,29.76
2022-08-25T04:03:14.490Z,29.72
2022-08-25T04:03:44.524Z,29.73
2022-08-25T04:04:14.556Z,29.80
2022-08-25T04:04:44.588Z,29.77
2022-08-25T04:05:15.828Z,29.89
2022-08-25T04:05:44.647Z,29.80
2022-08-25T04:06:14.699Z,29.84
2022-08-25T04:06:44.728Z,29.74
2022-08-25T04:07:14.759Z,29.79
2022-08-25T04:07:44.800Z,29.74
2022-08-25T04:08:14.833Z,29.71
2022-08-25T04:08:44.869Z,29.74
2022-08-25T04:09:14.908Z,29.85
2022-08-25T04:09:44.948Z,29.85
2022-08-25T04:10:14.969Z,29.74
2022-08-25T04:10:45.006Z,29.70
2022-08-25T04:11:15.039Z,29.90
2022-08-25T04:11:45.072Z,29.77
2022-08-25T04:12:15.104Z,29.86
2022-08-25T04:12:45.144Z,29.71
2022-08-25T04:13:15.175Z,29.70
2022-08-25T04:13:45.199Z,29.75
2022-08-25T04:14:16.563Z,29.81
2022-08-25T04:14:45.243Z,29.72
2022-08-25T04:15:15.241Z,29.81
2022-08-25T04:15:45.238Z,29.89
2022-08-25T04:16:15.415Z,29.84
2022-08-25T04:16:45.542Z,29.81
2022-08-25T04:17:15.446Z,29.90
2022-08-25T04:17:45.566Z,29.88
2022-08-25T04:18:15.626Z,29.84
2022-08-25T04:18:45.620Z,29.78
2022-08-25T04:19:15.610Z,29.83
2022-08-25T04:19:45.725Z,29.82
2022-08-25T04:20:15.840Z,29.94
2022-08-25T04:20:46.848Z,29.90
2022-08-25T04:21:15.842Z,29.84
2022-08-25T04:21:45.971Z,29.89
2022-08-25T04:22:15.839Z,29.88
2022-08-25T04:22:45.956Z,30.52
2022-08-25T04:23:16.077Z,30.24
2022-08-25T04:23:46.073Z,30.50
2022-08-25T04:24:16.192Z,30.34
2022-08-25T04:24:46.187Z,31.72
2022-08-25T04:25:16.217Z,31.27
2022-08-25T04:25:46.357Z,32.25
2022-08-25T04:26:16.248Z,32.28
2022-08-25T04:26:46.620Z,33.82
2022-08-25T04:27:16.405Z,33.73
2022-08-25T04:27:46.435Z,33.58
2022-08-25T04:28:16.465Z,34.51
2022-08-25T04:28:46.500Z,33.99
2022-08-25T04:29:16.526Z,33.87
2022-08-25T04:29:46.558Z,33.65
2022-08-25T04:30:16.623Z,33.31
2022-08-25T04:30:51.466Z,33.10
2022-08-25T04:31:16.831Z,32.87
2022-08-25T04:31:47.035Z,33.41
2022-08-25T04:32:16.969Z,33.22
2022-08-25T04:32:47.002Z,33.63
2022-08-25T04:33:17.038Z,33.31
2022-08-25T04:33:47.069Z,32.94
2022-08-25T04:34:30.689Z,32.89
2022-08-25T04:34:47.145Z,33.10
2022-08-25T04:35:17.178Z,33.31
2022-08-25T04:35:47.208Z,33.21
2022-08-25T04:36:17.245Z,32.83
2022-08-25T04:36:47.275Z,32.75
2022-08-25T04:37:17.321Z,33.37
2022-08-25T04:37:47.354Z,33.40
2022-08-25T04:38:17.397Z,33.96
2022-08-25T04:38:47.422Z,33.63
2022-08-25T04:39:17.455Z,33.89
2022-08-25T04:39:47.543Z,34.36
2022-08-25T04:40:17.543Z,34.42
2022-08-25T04:40:47.524Z,34.52
2022-08-25T04:41:17.566Z,34.44
2022-08-25T04:41:47.594Z,34.00
2022-08-25T04:42:17.637Z,33.78
2022-08-25T04:42:48.295Z,34.43
2022-08-25T04:43:17.728Z,35.09
2022-08-25T04:43:47.759Z,34.69
2022-08-25T04:44:17.791Z,34.16
2022-08-25T04:44:47.824Z,34.12
2022-08-25T04:45:17.858Z,34.83
2022-08-25T04:45:47.947Z,34.31
2022-08-25T04:46:20.346Z,35.40
2022-08-25T04:46:47.948Z,35.98
2022-08-25T04:47:17.987Z,36.02
2022-08-25T04:47:50.676Z,35.94
2022-08-25T04:48:18.062Z,35.54
2022-08-25T04:48:48.094Z,35.79
2022-08-25T04:49:18.128Z,35.53
2022-08-25T04:49:48.157Z,36.12
2022-08-25T04:50:18.197Z,35.75
2022-08-25T04:50:48.224Z,35.90
2022-08-25T04:51:18.259Z,36.28
2022-08-25T04:51:48.289Z,36.57
2022-08-25T04:52:18.320Z,36.28
2022-08-25T04:52:48.346Z,36.15
2022-08-25T04:53:18.378Z,35.68
2022-08-25T04:53:48.378Z,35.78
2022-08-25T04:54:18.407Z,35.48
2022-08-25T04:54:48.440Z,35.29
2022-08-25T04:55:18.469Z,34.89
2022-08-25T04:55:48.497Z,34.60
2022-08-25T04:56:18.532Z,35.08
2022-08-25T04:56:48.564Z,35.08
2022-08-25T04:57:18.598Z,34.77
2022-08-25T04:57:48.630Z,35.06
2022-08-25T04:58:18.666Z,35.02
2022-08-25T04:58:48.700Z,35.54
2022-08-25T04:59:18.727Z,35.91
2022-08-25T04:59:48.760Z,36.28
2022-08-25T05:00:18.836Z,37.20
2022-08-25T05:00:48.913Z,36.36
2022-08-25T05:01:19.002Z,36.52
2022-08-25T05:01:49.683Z,35.96
2022-08-25T05:02:18.963Z,36.79
2022-08-25T05:02:49.000Z,36.37
2022-08-25T05:03:19.027Z,36.36
2022-08-25T05:03:49.087Z,36.52
2022-08-25T05:04:28.534Z,36.62
2022-08-25T05:04:49.197Z,37.01
2022-08-25T05:05:19.203Z,37.75
2022-08-25T05:05:49.242Z,37.74
2022-08-25T05:06:19.274Z,37.01
2022-08-25T05:06:49.300Z,37.31
2022-08-25T05:07:19.342Z,37.87
2022-08-25T05:07:49.370Z,38.39
2022-08-25T05:08:19.401Z,37.99
2022-08-25T05:08:49.435Z,38.04
2022-08-25T05:09:19.814Z,38.14
2022-08-25T05:09:49.647Z,37.71
2022-08-25T05:10:19.678Z,38.13
2022-08-25T05:10:49.710Z,37.99
2022-08-25T05:11:19.744Z,38.54
2022-08-25T05:11:49.786Z,38.02
2022-08-25T05:12:19.815Z,37.50
2022-08-25T05:12:49.842Z,37.24
2022-08-25T05:13:19.873Z,36.96
2022-08-25T05:13:51.251Z,36.76
2022-08-25T05:14:20.056Z,36.87
2022-08-25T05:14:50.084Z,37.13
2022-08-25T05:15:20.205Z,36.83
2022-08-25T05:15:50.975Z,36.51
2022-08-25T05:16:20.450Z,36.30
2022-08-25T05:16:50.447Z,36.03
2022-08-25T05:17:20.413Z,36.91
2022-08-25T05:17:55.232Z,37.49
2022-08-25T05:18:20.458Z,37.19
2022-08-25T05:18:50.455Z,36.49
2022-08-25T05:19:20.580Z,36.87
2022-08-25T05:19:50.575Z,36.44
2022-08-25T05:20:20.691Z,36.73
2022-08-25T05:20:50.809Z,37.52
2022-08-25T05:21:20.814Z,37.15
2022-08-25T05:21:50.929Z,36.78
2022-08-25T05:22:21.045Z,36.79
2022-08-25T05:22:51.157Z,36.52
2022-08-25T05:23:21.277Z,36.94
2022-08-25T05:23:51.396Z,37.00
2022-08-25T05:24:21.531Z,37.35
2022-08-25T05:24:51.517Z,37.02
2022-08-25T05:25:21.547Z,37.38
2022-08-25T05:25:51.580Z,37.59
2022-08-25T05:26:21.625Z,37.44
2022-08-25T05:26:51.751Z,37.54
2022-08-25T05:27:21.782Z,38.53
2022-08-25T05:27:51.816Z,38.49
2022-08-25T05:28:21.849Z,37.81
2022-08-25T05:28:51.883Z,37.31
2022-08-25T05:29:21.909Z,37.02
2022-08-25T05:29:51.940Z,36.70
2022-08-25T05:30:21.974Z,36.47
2022-08-25T05:30:52.012Z,36.77
2022-08-25T05:31:22.150Z,37.59
2022-08-25T05:31:52.113Z,37.08
2022-08-25T05:32:22.134Z,38.44
2022-08-25T05:32:52.176Z,38.08
2022-08-25T05:33:22.205Z,38.02
2022-08-25T05:33:52.238Z,39.02
2022-08-25T05:34:22.277Z,38.38
2022-08-25T05:34:52.304Z,38.57
2022-08-25T05:35:22.341Z,38.08
2022-08-25T05:35:52.371Z,38.17
2022-08-25T05:36:22.398Z,38.02
2022-08-25T05:36:52.439Z,37.43
2022-08-25T05:37:22.468Z,37.20
2022-08-25T05:37:52.498Z,37.23
2022-08-25T05:38:22.534Z,37.66
2022-08-25T05:38:52.552Z,37.61
2022-08-25T05:39:22.580Z,37.24
2022-08-25T05:39:52.674Z,37.03
2022-08-25T05:40:22.758Z,36.61
2022-08-25T05:40:52.780Z,36.21
2022-08-25T05:41:22.815Z,36.48
2022-08-25T05:41:52.861Z,36.47
2022-08-25T05:42:22.891Z,36.23
2022-08-25T05:42:52.923Z,36.69
2022-08-25T05:43:22.953Z,36.90
2022-08-25T05:43:52.978Z,37.31
2022-08-25T05:44:23.013Z,38.34
2022-08-25T05:44:53.043Z,37.98
2022-08-25T05:45:23.212Z,37.44
2022-08-25T05:45:53.280Z,37.19
2022-08-25T05:46:23.286Z,37.89
2022-08-25T05:46:53.319Z,37.59
2022-08-25T05:47:23.349Z,37.14
2022-08-25T05:47:53.382Z,37.48
2022-08-25T05:48:23.412Z,37.59
2022-08-25T05:48:53.447Z,37.12
2022-08-25T05:49:23.479Z,37.81
2022-08-25T05:49:53.508Z,37.99
2022-08-25T05:50:23.541Z,37.68
2022-08-25T05:50:53.577Z,37.34
2022-08-25T05:51:23.603Z,37.21
2022-08-25T05:51:53.636Z,36.98
2022-08-25T05:52:23.670Z,38.18
2022-08-25T05:52:53.703Z,37.74
2022-08-25T05:53:23.744Z,37.47
2022-08-25T05:53:53.786Z,38.93
2022-08-25T05:54:23.850Z,38.41
2022-08-25T05:54:53.884Z,38.49
2022-08-25T05:55:23.917Z,38.56
2022-08-25T05:55:53.950Z,38.99
2022-08-25T05:56:23.983Z,38.49
2022-08-25T05:56:54.021Z,37.99
2022-08-25T05:57:24.056Z,38.05
2022-08-25T05:57:54.087Z,37.57
2022-08-25T05:58:24.116Z,37.16
2022-08-25T05:58:54.148Z,36.92
2022-08-25T05:59:24.182Z,36.85
2022-08-25T05:59:54.268Z,36.61
2022-08-25T06:00:24.292Z,36.56
2022-08-25T06:00:54.412Z,36.18
2022-08-25T06:01:24.500Z,35.95
2022-08-25T06:01:54.527Z,35.74
2022-08-25T06:02:24.570Z,35.56
2022-08-25T06:02:54.605Z,36.74
2022-08-25T06:03:24.697Z,36.70
2022-08-25T06:03:54.918Z,37.67
2022-08-25T06:04:24.743Z,37.32
2022-08-25T06:04:54.766Z,37.04
2022-08-25T06:05:24.820Z,36.67
2022-08-25T06:05:54.858Z,36.63
2022-08-25T06:06:24.913Z,36.38
2022-08-25T06:06:55.062Z,36.23
2022-08-25T06:07:24.981Z,35.93
2022-08-25T06:07:55.033Z,35.63
2022-08-25T06:08:25.066Z,36.04
2022-08-25T06:08:55.092Z,35.61
2022-08-25T06:09:25.126Z,37.34
2022-08-25T06:09:55.154Z,37.36
2022-08-25T06:10:25.190Z,37.97
2022-08-25T06:10:55.228Z,37.68
2022-08-25T06:11:25.246Z,37.23
2022-08-25T06:11:55.567Z,36.88
2022-08-25T06:12:25.398Z,37.77
2022-08-25T06:12:56.216Z,37.40
2022-08-25T06:13:26.995Z,37.11
2022-08-25T06:13:55.513Z,36.75
2022-08-25T06:14:25.543Z,36.41
2022-08-25T06:14:55.565Z,36.13
2022-08-25T06:15:25.685Z,35.88
2022-08-25T06:15:55.705Z,35.61
2022-08-25T06:16:25.730Z,35.50
2022-08-25T06:16:55.707Z,35.30
2022-08-25T06:17:25.825Z,35.17
2022-08-25T06:18:00.704Z,35.07
2022-08-25T06:18:25.955Z,34.96
2022-08-25T06:18:55.951Z,34.67
2022-08-25T06:19:25.950Z,34.68
2022-08-25T06:19:55.943Z,34.63
2022-08-25T06:20:25.942Z,34.43
2022-08-25T06:20:55.949Z,34.31
2022-08-25T06:21:25.945Z,34.21
2022-08-25T06:21:56.065Z,34.18
2022-08-25T06:22:26.057Z,34.11
2022-08-25T06:22:56.177Z,34.12
2022-08-25T06:23:26.292Z,34.06
2022-08-25T06:23:56.410Z,34.03
2022-08-25T06:24:26.410Z,34.47
2022-08-25T06:24:56.415Z,34.48
2022-08-25T06:25:26.454Z,34.41
2022-08-25T06:25:56.490Z,35.31
2022-08-25T06:26:26.522Z,35.16
2022-08-25T06:26:56.553Z,34.93